createdAt,value
2022-12-18T00:00:14.718Z,9.309072
2022-12-18T00:01:14.779Z,9.309033
2022-12-18T00:02:14.731Z,9.309190
2022-12-18T00:03:14.832Z,9.309152
2022-12-18T00:04:14.806Z,9.309088
2022-12-18T00:05:14.773Z,9.309056
2022-12-18T00:06:14.651Z,9.309023
2022-12-18T00:07:14.732Z,9.309085
2022-12-18T00:08:14.684Z,9.309103
2022-12-18T00:09:14.665Z,9.309076
2022-12-18T00:10:15.245Z,9.309114
2022-12-18T00:11:14.643Z,9.309098
2022-12-18T00:13:14.677Z,9.309100
2022-12-18T00:14:14.675Z,9.309094
2022-12-18T00:15:14.740Z,9.309133
2022-12-18T00:16:14.721Z,9.309047
2022-12-18T00:17:14.627Z,9.309142
2022-12-18T00:18:18.978Z,9.309161
2022-12-18T00:19:16.612Z,9.309150
2022-12-18T00:20:14.692Z,9.309119
2022-12-18T00:21:14.690Z,9.309072
2022-12-18T00:22:14.564Z,9.309126
2022-12-18T00:23:14.584Z,9.309072
2022-12-18T00:24:14.575Z,9.309093
2022-12-18T00:25:14.564Z,9.309072
2022-12-18T00:26:14.633Z,9.309052
2022-12-18T00:27:14.582Z,9.309116
2022-12-18T00:28:14.548Z,9.309050
2022-12-18T00:29:14.541Z,9.308912
2022-12-18T00:30:14.533Z,9.309009
2022-12-18T00:31:14.620Z,9.309011
2022-12-18T00:32:14.553Z,9.309042
2022-12-18T00:33:14.509Z,9.309033
2022-12-18T00:34:14.533Z,9.309044
2022-12-18T00:35:14.520Z,9.309057
2022-12-18T00:36:14.531Z,9.309174
2022-12-18T00:37:19.845Z,9.309062
2022-12-18T00:38:16.489Z,9.309031
2022-12-18T00:39:14.418Z,9.309065
2022-12-18T00:40:14.506Z,9.308966
2022-12-18T00:41:14.520Z,9.309077
2022-12-18T00:42:14.495Z,9.309077
2022-12-18T00:43:14.544Z,9.309076
2022-12-18T00:44:14.459Z,9.309101
2022-12-18T00:45:14.517Z,9.309094
2022-12-18T00:46:14.510Z,9.309106
2022-12-18T00:47:14.523Z,9.309093
2022-12-18T00:48:14.460Z,9.309101
2022-12-18T00:49:14.417Z,9.309057
2022-12-18T00:50:14.410Z,9.309211
2022-12-18T00:51:14.396Z,9.309199
2022-12-18T00:52:14.376Z,9.309000
2022-12-18T00:53:14.385Z,9.309218
2022-12-18T00:54:14.616Z,9.309249
2022-12-18T00:55:14.317Z,9.309322
2022-12-18T00:56:14.296Z,9.309239
2022-12-18T00:57:14.337Z,9.309029
2022-12-18T00:58:14.302Z,9.309109
2022-12-18T00:59:14.363Z,9.309145
2022-12-18T01:00:14.276Z,9.309136
2022-12-18T01:01:14.377Z,9.309116
2022-12-18T01:02:14.380Z,9.309022
2022-12-18T01:03:14.399Z,9.309087
2022-12-18T01:04:14.276Z,9.308998
2022-12-18T01:05:14.302Z,9.309057
2022-12-18T01:06:14.274Z,9.309149
2022-12-18T01:07:14.240Z,9.309041
2022-12-18T01:08:14.213Z,9.309047
2022-12-18T01:09:14.219Z,9.309026
2022-12-18T01:10:14.258Z,9.309020
2022-12-18T01:11:14.211Z,9.309050
2022-12-18T01:12:14.197Z,9.308964
2022-12-18T01:13:14.216Z,9.309072
2022-12-18T01:14:14.199Z,9.309016
2022-12-18T01:15:14.279Z,9.309029
2022-12-18T01:16:14.306Z,9.309017
2022-12-18T01:17:14.240Z,9.309030
2022-12-18T01:18:14.286Z,9.308859
2022-12-18T01:19:14.248Z,9.309021
2022-12-18T01:20:14.203Z,9.309080
2022-12-18T01:21:14.292Z,9.308877
2022-12-18T01:22:14.224Z,9.309105
2022-12-18T01:23:14.205Z,9.309062
2022-12-18T01:24:14.225Z,9.309073
2022-12-18T01:25:14.249Z,9.308990
2022-12-18T01:26:14.237Z,9.309035
2022-12-18T01:27:14.219Z,9.309098
2022-12-18T01:28:14.195Z,9.309022
2022-12-18T01:29:14.244Z,9.309012
2022-12-18T01:30:14.177Z,9.308985
2022-12-18T01:31:14.281Z,9.309059
2022-12-18T01:32:14.192Z,9.309088
2022-12-18T01:33:14.193Z,9.309090
2022-12-18T01:34:14.135Z,9.309056
2022-12-18T01:35:14.185Z,9.309000
2022-12-18T01:36:14.129Z,9.308959
2022-12-18T01:37:14.186Z,9.308885
2022-12-18T01:38:14.102Z,9.309038
2022-12-18T01:39:14.217Z,9.309129
2022-12-18T01:40:14.143Z,9.309098
2022-12-18T01:41:14.153Z,9.309097
2022-12-18T01:42:14.083Z,9.309065
2022-12-18T01:43:14.172Z,9.309074
2022-12-18T01:44:14.083Z,9.309077
2022-12-18T01:45:14.043Z,9.309125
2022-12-18T01:46:14.017Z,9.309125
2022-12-18T01:47:14.041Z,9.309091
2022-12-18T01:48:14.003Z,9.309086
2022-12-18T01:49:13.977Z,9.309077
2022-12-18T01:50:13.969Z,9.309066
2022-12-18T01:51:14.000Z,9.309053
2022-12-18T01:52:14.047Z,9.309139
2022-12-18T01:53:14.054Z,9.309123
2022-12-18T01:54:14.039Z,9.309077
2022-12-18T01:55:14.095Z,9.309098
2022-12-18T01:56:14.038Z,9.309032
2022-12-18T01:57:14.005Z,9.309006
2022-12-18T01:58:13.983Z,9.309000
2022-12-18T01:59:14.297Z,9.309006
2022-12-18T02:00:14.016Z,9.309038
2022-12-18T02:01:14.155Z,9.309016
2022-12-18T02:02:14.065Z,9.308957
2022-12-18T02:03:15.036Z,9.309003
2022-12-18T02:04:14.023Z,9.309063
2022-12-18T02:05:14.094Z,9.309030
2022-12-18T02:06:13.856Z,9.309221
2022-12-18T02:07:13.945Z,9.309147
2022-12-18T02:08:13.925Z,9.309135
2022-12-18T02:09:13.962Z,9.309085
2022-12-18T02:10:13.946Z,9.309101
2022-12-18T02:11:13.954Z,9.309014
2022-12-18T02:12:13.905Z,9.309013
2022-12-18T02:13:13.971Z,9.309006
2022-12-18T02:14:13.899Z,9.309165
2022-12-18T02:15:13.986Z,9.309196
2022-12-18T02:16:13.920Z,9.309099
2022-12-18T02:17:13.943Z,9.309038
2022-12-18T02:18:13.906Z,9.308998
2022-12-18T02:19:13.918Z,9.308979
2022-12-18T02:20:13.890Z,9.308964
2022-12-18T02:21:13.936Z,9.308867
2022-12-18T02:22:13.854Z,9.308919
2022-12-18T02:23:13.944Z,9.308843
2022-12-18T02:24:13.819Z,9.308862
2022-12-18T02:25:13.929Z,9.308938
2022-12-18T02:26:13.809Z,9.308849
2022-12-18T02:27:13.916Z,9.308948
2022-12-18T02:28:13.798Z,9.309037
2022-12-18T02:29:13.937Z,9.308946
2022-12-18T02:30:13.818Z,9.308989
2022-12-18T02:31:14.004Z,9.308928
2022-12-18T02:32:13.820Z,9.308990
2022-12-18T02:33:13.806Z,9.308991
2022-12-18T02:34:13.759Z,9.308874
2022-12-18T02:35:13.798Z,9.308921
2022-12-18T02:36:13.758Z,9.309015
2022-12-18T02:37:13.702Z,9.309221
2022-12-18T02:38:13.736Z,9.309172
2022-12-18T02:39:13.697Z,9.309047
2022-12-18T02:40:13.653Z,9.309014
2022-12-18T02:41:13.680Z,9.309011
2022-12-18T02:42:13.656Z,9.309020
2022-12-18T02:43:13.714Z,9.309130
2022-12-18T02:44:13.625Z,9.309186
2022-12-18T02:45:14.671Z,9.309092
2022-12-18T02:46:13.696Z,9.308998
2022-12-18T02:47:13.624Z,9.309027
2022-12-18T02:48:13.670Z,9.309039
2022-12-18T02:49:13.669Z,9.309038
2022-12-18T02:50:13.612Z,9.309002
2022-12-18T02:51:13.705Z,9.309040
2022-12-18T02:52:13.605Z,9.309105
2022-12-18T02:53:13.689Z,9.309143
2022-12-18T02:54:13.715Z,9.309190
2022-12-18T02:55:13.650Z,9.309196
2022-12-18T02:56:13.708Z,9.309146
2022-12-18T02:57:13.643Z,9.309148
2022-12-18T02:58:13.662Z,9.309011
2022-12-18T02:59:13.641Z,9.308952
2022-12-18T03:00:14.014Z,9.309007
2022-12-18T03:01:13.961Z,9.309072
2022-12-18T03:02:13.817Z,9.309034
2022-12-18T03:03:13.675Z,9.309051
2022-12-18T03:04:13.575Z,9.309032
2022-12-18T03:05:13.624Z,9.308963
2022-12-18T03:06:13.563Z,9.308934
2022-12-18T03:07:13.591Z,9.309019
2022-12-18T03:08:13.582Z,9.309029
2022-12-18T03:09:13.579Z,9.309095
2022-12-18T03:10:13.568Z,9.309091
2022-12-18T03:11:13.594Z,9.308930
2022-12-18T03:12:13.544Z,9.309087
2022-12-18T03:13:13.546Z,9.309037
2022-12-18T03:14:13.521Z,9.308996
2022-12-18T03:15:17.628Z,9.309059
2022-12-18T03:16:14.571Z,9.309136
2022-12-18T03:17:13.603Z,9.309142
2022-12-18T03:18:13.503Z,9.309114
2022-12-18T03:19:13.535Z,9.309096
2022-12-18T03:20:13.475Z,9.309135
2022-12-18T03:21:13.538Z,9.309145
2022-12-18T03:22:13.474Z,9.309056
2022-12-18T03:23:13.536Z,9.309142
2022-12-18T03:24:13.485Z,9.309134
2022-12-18T03:25:13.575Z,9.309127
2022-12-18T03:26:13.470Z,9.309048
2022-12-18T03:27:13.511Z,9.309146
2022-12-18T03:28:13.458Z,9.309054
2022-12-18T03:29:13.381Z,9.309145
2022-12-18T03:30:13.359Z,9.309146
2022-12-18T03:31:13.462Z,9.309008
2022-12-18T03:32:13.376Z,9.309082
2022-12-18T03:33:13.396Z,9.309088
2022-12-18T03:34:13.326Z,9.309152
2022-12-18T03:35:13.328Z,9.309143
2022-12-18T03:36:13.320Z,9.309135
2022-12-18T03:37:13.320Z,9.309175
2022-12-18T03:38:13.366Z,9.309105
2022-12-18T03:39:13.334Z,9.309123
2022-12-18T03:40:13.390Z,9.309141
2022-12-18T03:41:13.351Z,9.309174
2022-12-18T03:42:13.359Z,9.309117
2022-12-18T03:43:13.400Z,9.309123
2022-12-18T03:44:13.345Z,9.309114
2022-12-18T03:45:13.367Z,9.309182
2022-12-18T03:46:13.479Z,9.309121
2022-12-18T03:47:13.346Z,9.309096
2022-12-18T03:48:13.386Z,9.309119
2022-12-18T03:49:14.420Z,9.309105
2022-12-18T03:50:14.330Z,9.309057
2022-12-18T03:51:13.290Z,9.309127
2022-12-18T03:52:13.398Z,9.309153
2022-12-18T03:53:13.326Z,9.309098
2022-12-18T03:54:13.323Z,9.309110
2022-12-18T03:55:13.300Z,9.309078
2022-12-18T03:56:13.275Z,9.309048
2022-12-18T03:57:13.274Z,9.309185
2022-12-18T03:58:13.285Z,9.309090
2022-12-18T03:59:13.258Z,9.309131
2022-12-18T04:00:13.281Z,9.309124
2022-12-18T04:01:13.318Z,9.309119
2022-12-18T04:02:13.349Z,9.309106
2022-12-18T04:03:13.328Z,9.309055
2022-12-18T04:04:13.287Z,9.309024
2022-12-18T04:05:13.390Z,9.309076
2022-12-18T04:06:13.166Z,9.309112
2022-12-18T04:07:13.242Z,9.309165
2022-12-18T04:08:13.202Z,9.309131
2022-12-18T04:09:13.183Z,9.309169
2022-12-18T04:10:13.229Z,9.309258
2022-12-18T04:11:13.278Z,9.309177
2022-12-18T04:12:13.165Z,9.309082
2022-12-18T04:13:13.089Z,9.309141
2022-12-18T04:14:17.709Z,9.309155
2022-12-18T04:15:15.175Z,9.309242
2022-12-18T04:16:13.236Z,9.309211
2022-12-18T04:17:13.181Z,9.309094
2022-12-18T04:18:13.140Z,9.309115
2022-12-18T04:19:13.133Z,9.309091
2022-12-18T04:20:13.118Z,9.309104
2022-12-18T04:21:13.197Z,9.309103
2022-12-18T04:22:13.169Z,9.309171
2022-12-18T04:23:13.100Z,9.309218
2022-12-18T04:24:14.106Z,9.309184
2022-12-18T04:25:13.198Z,9.309134
2022-12-18T04:26:13.100Z,9.309171
2022-12-18T04:27:13.122Z,9.309147
2022-12-18T04:28:13.054Z,9.309160
2022-12-18T04:29:13.085Z,9.309136
2022-12-18T04:30:13.298Z,9.309183
2022-12-18T04:31:13.059Z,9.309093
2022-12-18T04:32:12.959Z,9.309120
2022-12-18T04:33:12.975Z,9.309068
2022-12-18T04:34:13.012Z,9.309124
2022-12-18T04:35:12.972Z,9.309146
2022-12-18T04:36:12.959Z,9.309067
2022-12-18T04:37:13.026Z,9.309129
2022-12-18T04:38:12.968Z,9.309186
2022-12-18T04:39:12.926Z,9.309168
2022-12-18T04:40:12.929Z,9.309257
2022-12-18T04:41:12.896Z,9.309272
2022-12-18T04:42:12.918Z,9.309268
2022-12-18T04:43:13.043Z,9.309175
2022-12-18T04:44:12.977Z,9.309145
2022-12-18T04:45:12.911Z,9.309160
2022-12-18T04:46:12.922Z,9.309121
2022-12-18T04:47:12.938Z,9.309128
2022-12-18T04:48:13.519Z,9.309135
2022-12-18T04:49:12.879Z,9.309138
2022-12-18T04:50:12.854Z,9.309131
2022-12-18T04:51:12.945Z,9.309118
2022-12-18T04:52:12.974Z,9.309176
2022-12-18T04:53:18.811Z,9.309172
2022-12-18T04:54:13.964Z,9.309257
2022-12-18T04:55:12.906Z,9.309241
2022-12-18T04:56:12.913Z,9.309196
2022-12-18T04:57:12.903Z,9.309194
2022-12-18T04:58:13.037Z,9.309194
2022-12-18T04:59:12.896Z,9.309235
2022-12-18T05:00:12.916Z,9.309217
2022-12-18T05:01:12.950Z,9.309184
2022-12-18T05:02:12.945Z,9.309156
2022-12-18T05:03:12.989Z,9.309139
2022-12-18T05:04:12.927Z,9.309185
2022-12-18T05:05:12.925Z,9.309171
2022-12-18T05:06:12.777Z,9.309179
2022-12-18T05:07:12.873Z,9.309173
2022-12-18T05:08:12.847Z,9.309160
2022-12-18T05:09:12.900Z,9.309149
2022-12-18T05:10:12.917Z,9.309119
2022-12-18T05:11:13.431Z,9.309165
2022-12-18T05:12:12.807Z,9.309194
2022-12-18T05:13:12.812Z,9.309155
2022-12-18T05:14:12.813Z,9.309171
2022-12-18T05:15:12.770Z,9.309155
2022-12-18T05:16:12.973Z,9.309161
2022-12-18T05:17:12.758Z,9.309187
2022-12-18T05:18:12.772Z,9.309128
2022-12-18T05:19:12.792Z,9.309179
2022-12-18T05:20:12.741Z,9.309118
2022-12-18T05:21:12.763Z,9.309103
2022-12-18T05:22:12.782Z,9.309150
2022-12-18T05:23:12.728Z,9.309109
2022-12-18T05:24:12.743Z,9.309123
2022-12-18T05:25:12.707Z,9.309141
2022-12-18T05:26:12.839Z,9.309176
2022-12-18T05:27:12.763Z,9.309168
2022-12-18T05:28:12.704Z,9.309181
2022-12-18T05:29:12.723Z,9.309192
2022-12-18T05:30:12.733Z,9.309195
2022-12-18T05:31:12.814Z,9.309198
2022-12-18T05:32:12.716Z,9.309121
2022-12-18T05:33:12.744Z,9.309148
2022-12-18T05:34:12.721Z,9.309130
2022-12-18T05:35:12.694Z,9.309206
2022-12-18T05:36:12.724Z,9.309142
2022-12-18T05:37:12.661Z,9.309192
2022-12-18T05:38:12.813Z,9.309147
2022-12-18T05:39:12.692Z,9.309131
2022-12-18T05:40:12.667Z,9.309136
2022-12-18T05:41:12.646Z,9.309144
2022-12-18T05:42:12.691Z,9.309168
2022-12-18T05:43:15.376Z,9.309151
2022-12-18T05:44:15.709Z,9.309120
2022-12-18T05:45:12.743Z,9.309130
2022-12-18T05:46:12.680Z,9.309141
2022-12-18T05:47:13.604Z,9.309169
2022-12-18T05:48:12.606Z,9.309145
2022-12-18T05:49:12.641Z,9.309114
2022-12-18T05:50:12.593Z,9.309141
2022-12-18T05:51:12.579Z,9.309157
2022-12-18T05:52:13.603Z,9.309155
2022-12-18T05:53:12.594Z,9.309140
2022-12-18T05:54:12.576Z,9.309156
2022-12-18T05:55:12.798Z,9.309120
2022-12-18T05:56:12.499Z,9.309114
2022-12-18T05:57:12.476Z,9.309156
2022-12-18T05:58:12.559Z,9.309177
2022-12-18T05:59:12.484Z,9.309102
2022-12-18T06:00:12.491Z,9.309127
2022-12-18T06:01:12.502Z,9.309202
2022-12-18T06:02:12.555Z,9.309152
2022-12-18T06:03:12.548Z,9.309141
2022-12-18T06:04:12.488Z,9.309061
2022-12-18T06:05:12.468Z,9.309080
2022-12-18T06:06:12.473Z,9.309104
2022-12-18T06:07:12.422Z,9.309093
2022-12-18T06:08:12.397Z,9.309084
2022-12-18T06:09:12.519Z,9.309072
2022-12-18T06:10:12.432Z,9.309103
2022-12-18T06:11:12.631Z,9.309082
2022-12-18T06:12:12.415Z,9.309091
2022-12-18T06:13:12.379Z,9.309064
2022-12-18T06:14:12.450Z,9.309153
2022-12-18T06:15:12.495Z,9.309085
2022-12-18T06:16:12.555Z,9.309108
2022-12-18T06:17:12.449Z,9.309108
2022-12-18T06:18:12.396Z,9.309092
2022-12-18T06:19:12.445Z,9.309127
2022-12-18T06:20:12.416Z,9.309128
2022-12-18T06:21:12.416Z,9.309114
2022-12-18T06:22:12.449Z,9.309206
2022-12-18T06:23:12.434Z,9.309174
2022-12-18T06:24:12.413Z,9.309125
2022-12-18T06:25:12.391Z,9.309118
2022-12-18T06:26:12.443Z,9.309101
2022-12-18T06:27:12.355Z,9.309064
2022-12-18T06:28:12.488Z,9.309104
2022-12-18T06:29:12.363Z,9.309108
2022-12-18T06:30:12.475Z,9.309095
2022-12-18T06:31:12.412Z,9.309100
2022-12-18T06:32:12.421Z,9.309041
2022-12-18T06:33:12.403Z,9.308993
2022-12-18T06:34:12.322Z,9.309014
2022-12-18T06:35:12.384Z,9.309069
2022-12-18T06:36:12.368Z,9.309011
2022-12-18T06:37:12.316Z,9.309084
2022-12-18T06:38:12.316Z,9.309073
2022-12-18T06:39:12.326Z,9.309029
2022-12-18T06:40:12.265Z,9.309097
2022-12-18T06:41:12.306Z,9.309152
2022-12-18T06:42:12.285Z,9.309148
2022-12-18T06:43:12.300Z,9.309008
2022-12-18T06:44:12.323Z,9.309081
2022-12-18T06:45:12.288Z,9.309109
2022-12-18T06:46:13.410Z,9.309051
2022-12-18T06:47:12.285Z,9.309087
2022-12-18T06:48:12.280Z,9.309134
2022-12-18T06:49:12.253Z,9.309179
2022-12-18T06:50:12.294Z,9.309151
2022-12-18T06:51:12.236Z,9.309120
2022-12-18T06:52:12.219Z,9.309160
2022-12-18T06:53:12.240Z,9.309158
2022-12-18T06:54:12.265Z,9.309077
2022-12-18T06:55:12.327Z,9.309134
2022-12-18T06:56:12.248Z,9.309182
2022-12-18T06:57:12.306Z,9.309110
2022-12-18T06:58:12.201Z,9.309095
2022-12-18T06:59:12.294Z,9.308988
2022-12-18T07:00:12.513Z,9.309035
2022-12-18T07:01:12.271Z,9.309050
2022-12-18T07:02:12.400Z,9.309064
2022-12-18T07:03:12.182Z,9.309052
2022-12-18T07:04:12.096Z,9.309135
2022-12-18T07:05:12.083Z,9.309082
2022-12-18T07:06:12.168Z,9.309106
2022-12-18T07:07:12.083Z,9.309103
2022-12-18T07:08:12.087Z,9.309120
2022-12-18T07:09:12.111Z,9.309069
2022-12-18T07:10:12.071Z,9.308785
2022-12-18T07:11:12.068Z,9.308905
2022-12-18T07:12:12.524Z,9.308993
2022-12-18T07:13:12.024Z,9.308918
2022-12-18T07:14:12.035Z,9.308818
2022-12-18T07:15:12.092Z,9.308997
2022-12-18T07:16:18.355Z,9.309054
2022-12-18T07:17:14.116Z,9.309038
2022-12-18T07:18:12.083Z,9.309028
2022-12-18T07:19:12.061Z,9.309082
2022-12-18T07:20:11.991Z,9.309106
2022-12-18T07:21:12.072Z,9.309001
2022-12-18T07:22:12.156Z,9.309072
2022-12-18T07:23:12.096Z,9.309023
2022-12-18T07:24:12.116Z,9.309079
2022-12-18T07:25:13.077Z,9.309168
2022-12-18T07:26:12.160Z,9.309127
2022-12-18T07:27:12.032Z,9.309025
2022-12-18T07:28:17.187Z,9.309042
2022-12-18T07:29:13.968Z,9.309041
2022-12-18T07:30:12.092Z,9.309099
2022-12-18T07:31:12.137Z,9.309055
2022-12-18T07:32:12.107Z,9.309009
2022-12-18T07:33:12.031Z,9.308978
2022-12-18T07:34:12.166Z,9.309005
2022-12-18T07:35:12.019Z,9.309029
2022-12-18T07:36:12.136Z,9.309084
2022-12-18T07:37:12.013Z,9.309019
2022-12-18T07:38:12.002Z,9.309031
2022-12-18T07:39:12.011Z,9.308962
2022-12-18T07:40:11.978Z,9.309004
2022-12-18T07:41:11.945Z,9.308978
2022-12-18T07:42:11.951Z,9.309110
2022-12-18T07:43:11.963Z,9.309032
2022-12-18T07:44:11.987Z,9.309001
2022-12-18T07:45:11.946Z,9.308991
2022-12-18T07:46:13.201Z,9.309045
2022-12-18T07:47:12.372Z,9.309032
2022-12-18T07:48:12.925Z,9.308998
2022-12-18T07:49:11.963Z,9.308928
2022-12-18T07:50:11.981Z,9.309008
2022-12-18T07:51:12.948Z,9.309161
2022-12-18T07:52:11.916Z,9.308977
2022-12-18T07:53:12.015Z,9.308965
2022-12-18T07:54:11.895Z,9.309054
2022-12-18T07:55:12.033Z,9.309146
2022-12-18T07:56:27.200Z,9.308986
2022-12-18T07:57:41.430Z,9.308944
2022-12-18T07:58:13.795Z,9.308983
2022-12-18T07:59:11.955Z,9.309003
2022-12-18T08:00:11.831Z,9.309070
2022-12-18T08:01:12.044Z,9.309068
2022-12-18T08:02:12.004Z,9.309069
2022-12-18T08:03:11.817Z,9.308937
2022-12-18T08:04:11.792Z,9.309019
2022-12-18T08:05:11.821Z,9.308976
2022-12-18T08:06:11.910Z,9.309093
2022-12-18T08:07:11.844Z,9.309139
2022-12-18T08:08:11.790Z,9.309107
2022-12-18T08:09:11.808Z,9.309139
2022-12-18T08:10:11.826Z,9.309137
2022-12-18T08:11:11.757Z,9.309097
2022-12-18T08:12:11.839Z,9.309031
2022-12-18T08:13:11.760Z,9.309072
2022-12-18T08:14:11.738Z,9.309168
2022-12-18T08:15:11.704Z,9.309187
2022-12-18T08:16:11.819Z,9.309128
2022-12-18T08:17:11.836Z,9.309225
2022-12-18T08:18:14.444Z,9.309211
2022-12-18T08:19:12.784Z,9.309159
2022-12-18T08:20:11.779Z,9.309188
2022-12-18T08:21:11.748Z,9.309047
2022-12-18T08:22:11.924Z,9.309189
2022-12-18T08:23:11.781Z,9.309092
2022-12-18T08:24:11.645Z,9.309090
2022-12-18T08:25:11.635Z,9.309136
2022-12-18T08:26:11.632Z,9.308983
2022-12-18T08:28:13.691Z,9.308871
2022-12-18T08:29:11.619Z,9.308861
2022-12-18T08:30:11.616Z,9.308983
2022-12-18T08:31:11.669Z,9.308972
2022-12-18T08:32:11.725Z,9.309074
2022-12-18T08:33:11.657Z,9.309039
2022-12-18T08:34:11.593Z,9.309024
2022-12-18T08:35:11.586Z,9.308994
2022-12-18T08:36:11.581Z,9.309017
2022-12-18T08:37:11.816Z,9.309097
2022-12-18T08:38:11.627Z,9.309033
2022-12-18T08:39:11.844Z,9.309044
2022-12-18T08:40:11.583Z,9.309064
2022-12-18T08:41:11.649Z,9.309051
2022-12-18T08:42:11.621Z,9.309046
2022-12-18T08:43:11.616Z,9.309093
2022-12-18T08:44:11.652Z,9.309039
2022-12-18T08:45:11.652Z,9.309072
2022-12-18T08:46:11.618Z,9.309100
2022-12-18T08:47:11.656Z,9.309022
2022-12-18T08:48:11.565Z,9.309051
2022-12-18T08:49:11.571Z,9.309099
2022-12-18T08:50:12.103Z,9.309060
2022-12-18T08:51:11.630Z,9.309026
2022-12-18T08:52:11.562Z,9.308980
2022-12-18T08:53:11.675Z,9.309046
2022-12-18T08:54:11.618Z,9.309010
2022-12-18T08:55:11.725Z,9.309055
2022-12-18T08:56:11.555Z,9.309133
2022-12-18T08:57:13.961Z,9.309054
2022-12-18T08:58:11.541Z,9.309142
2022-12-18T08:59:18.816Z,9.309151
2022-12-18T09:00:13.614Z,9.309046
2022-12-18T09:01:11.571Z,9.309077
2022-12-18T09:02:11.842Z,9.309214
2022-12-18T09:03:11.706Z,9.309138
2022-12-18T09:04:11.524Z,9.309051
2022-12-18T09:05:11.524Z,9.309041
2022-12-18T09:06:11.639Z,9.309062
2022-12-18T09:07:11.515Z,9.309056
2022-12-18T09:08:11.480Z,9.309008
2022-12-18T09:09:11.565Z,9.309050
2022-12-18T09:10:11.524Z,9.309032
2022-12-18T09:11:11.531Z,9.309155
2022-12-18T09:12:11.438Z,9.309127
2022-12-18T09:13:11.479Z,9.309176
2022-12-18T09:14:11.436Z,9.309212
2022-12-18T09:15:11.369Z,9.309098
2022-12-18T09:16:11.433Z,9.309069
2022-12-18T09:17:11.414Z,9.308951
2022-12-18T09:18:11.353Z,9.309000
2022-12-18T09:19:11.321Z,9.309170
2022-12-18T09:20:11.332Z,9.309182
2022-12-18T09:21:11.346Z,9.309024
2022-12-18T09:22:11.584Z,9.308982
2022-12-18T09:23:25.350Z,9.309006
2022-12-18T09:24:11.271Z,9.309129
2022-12-18T09:25:11.260Z,9.309093
2022-12-18T09:26:11.351Z,9.308982
2022-12-18T09:27:11.553Z,9.309084
2022-12-18T09:28:12.302Z,9.308987
2022-12-18T09:29:11.271Z,9.309002
2022-12-18T09:30:11.277Z,9.308862
2022-12-18T09:31:11.684Z,9.309025
2022-12-18T09:32:11.427Z,9.308866
2022-12-18T09:33:11.372Z,9.308980
2022-12-18T09:34:11.318Z,9.308992
2022-12-18T09:35:11.355Z,9.308975
2022-12-18T09:36:11.355Z,9.309054
2022-12-18T09:37:11.261Z,9.309106
2022-12-18T09:38:12.341Z,9.309128
2022-12-18T09:39:11.290Z,9.309260
2022-12-18T09:40:11.315Z,9.309253
2022-12-18T09:41:11.326Z,9.309276
2022-12-18T09:42:11.381Z,9.309220
2022-12-18T09:43:11.448Z,9.309228
2022-12-18T09:44:11.269Z,9.309209
2022-12-18T09:45:11.441Z,9.309193
2022-12-18T09:46:11.540Z,9.309237
2022-12-18T09:47:11.312Z,9.309280
2022-12-18T09:48:11.208Z,9.309297
2022-12-18T09:49:11.702Z,9.309265
2022-12-18T09:50:17.040Z,9.309245
2022-12-18T09:51:13.310Z,9.309225
2022-12-18T09:52:29.987Z,9.309271
2022-12-18T09:53:12.164Z,9.309208
2022-12-18T09:54:11.206Z,9.309184
2022-12-18T09:55:11.277Z,9.309179
2022-12-18T09:56:11.236Z,9.309231
2022-12-18T09:57:11.233Z,9.309218
2022-12-18T09:58:11.229Z,9.309208
2022-12-18T09:59:11.240Z,9.309247
2022-12-18T10:00:11.367Z,9.309219
2022-12-18T10:01:11.250Z,9.309169
2022-12-18T10:02:11.527Z,9.309199
2022-12-18T10:03:11.784Z,9.309201
2022-12-18T10:04:11.702Z,9.309177
2022-12-18T10:05:11.345Z,9.309174
2022-12-18T10:06:11.145Z,9.309196
2022-12-18T10:07:11.291Z,9.309194
2022-12-18T10:08:11.588Z,9.309190
2022-12-18T10:09:11.337Z,9.309269
2022-12-18T10:10:11.224Z,9.309351
2022-12-18T10:11:11.585Z,9.309282
2022-12-18T10:12:11.274Z,9.309177
2022-12-18T10:13:11.146Z,9.309103
2022-12-18T10:14:11.055Z,9.309063
2022-12-18T10:15:10.996Z,9.309127
2022-12-18T10:16:11.187Z,9.309230
2022-12-18T10:17:11.047Z,9.309258
2022-12-18T10:18:11.007Z,9.309200
2022-12-18T10:19:11.130Z,9.309165
2022-12-18T10:20:11.101Z,9.309160
2022-12-18T10:21:11.066Z,9.309154
2022-12-18T10:22:11.078Z,9.309144
2022-12-18T10:23:11.252Z,9.309153
2022-12-18T10:24:11.117Z,9.309196
2022-12-18T10:25:11.044Z,9.309203
2022-12-18T10:26:11.033Z,9.309230
2022-12-18T10:27:11.796Z,9.309175
2022-12-18T10:28:11.268Z,9.309225
2022-12-18T10:29:11.494Z,9.309199
2022-12-18T10:30:11.123Z,9.309286
2022-12-18T10:31:11.636Z,9.309152
2022-12-18T10:32:11.079Z,9.309129
2022-12-18T10:33:11.426Z,9.309144
2022-12-18T10:34:11.413Z,9.309177
2022-12-18T10:35:11.186Z,9.309067
2022-12-18T10:36:10.966Z,9.309147
2022-12-18T10:37:11.178Z,9.309200
2022-12-18T10:38:11.185Z,9.309074
2022-12-18T10:39:11.113Z,9.309152
2022-12-18T10:40:11.898Z,9.309258
2022-12-18T10:41:11.192Z,9.309406
2022-12-18T10:42:11.648Z,9.309142
2022-12-18T10:43:11.453Z,9.309099
2022-12-18T10:44:11.192Z,9.309139
2022-12-18T10:45:11.545Z,9.309188
2022-12-18T10:46:11.264Z,9.309215
2022-12-18T10:47:12.097Z,9.309228
2022-12-18T10:48:12.037Z,9.309211
2022-12-18T10:49:11.235Z,9.309197
2022-12-18T10:50:11.235Z,9.309155
2022-12-18T10:51:13.065Z,9.309126
2022-12-18T10:52:12.264Z,9.309246
2022-12-18T10:53:11.510Z,9.309421
2022-12-18T10:54:11.547Z,9.309289
2022-12-18T10:55:11.243Z,9.309273
2022-12-18T10:56:10.837Z,9.309217
2022-12-18T10:57:11.089Z,9.309157
2022-12-18T10:58:10.740Z,9.309134
2022-12-18T10:59:10.906Z,9.309181
2022-12-18T11:00:10.788Z,9.309171
2022-12-18T11:01:11.011Z,9.309130
2022-12-18T11:02:11.126Z,9.309203
2022-12-18T11:03:10.846Z,9.309231
2022-12-18T11:04:10.861Z,9.309168
2022-12-18T11:05:11.507Z,9.309190
2022-12-18T11:06:11.151Z,9.309090
2022-12-18T11:07:11.293Z,9.309280
2022-12-18T11:08:11.147Z,9.309216
2022-12-18T11:09:14.451Z,9.309157
2022-12-18T11:10:12.114Z,9.309157
2022-12-18T11:11:10.852Z,9.309152
2022-12-18T11:12:10.836Z,9.309102
2022-12-18T11:13:12.121Z,9.309158
2022-12-18T11:14:11.308Z,9.309058
2022-12-18T11:15:10.903Z,9.309039
2022-12-18T11:16:11.253Z,9.309079
2022-12-18T11:17:27.253Z,9.309096
2022-12-18T11:18:12.712Z,9.309142
2022-12-18T11:19:10.824Z,9.309095
2022-12-18T11:20:11.012Z,9.309120
2022-12-18T11:21:10.901Z,9.309112
2022-12-18T11:22:11.097Z,9.309168
2022-12-18T11:23:10.688Z,9.309113
2022-12-18T11:24:11.281Z,9.309094
2022-12-18T11:26:13.326Z,9.309109
2022-12-18T11:27:10.676Z,9.309093
2022-12-18T11:28:10.934Z,9.309130
2022-12-18T11:29:10.695Z,9.309028
2022-12-18T11:30:10.590Z,9.309054
2022-12-18T11:31:11.185Z,9.309074
2022-12-18T11:32:10.694Z,9.309106
2022-12-18T11:33:10.522Z,9.309154
2022-12-18T11:35:13.236Z,9.309134
2022-12-18T11:36:11.049Z,9.309101
2022-12-18T11:37:11.202Z,9.309094
2022-12-18T11:38:10.758Z,9.309150
2022-12-18T11:39:10.886Z,9.309098
2022-12-18T11:40:10.791Z,9.309124
2022-12-18T11:41:11.198Z,9.309142
2022-12-18T11:42:11.488Z,9.309137
2022-12-18T11:43:11.195Z,9.309157
2022-12-18T11:44:12.030Z,9.309175
2022-12-18T11:45:10.997Z,9.309139
2022-12-18T11:46:16.152Z,9.309194
2022-12-18T11:47:14.795Z,9.309130
2022-12-18T11:48:11.723Z,9.309136